createdAt,value
2022-10-01T00:02:00.187Z,1.30
2022-10-01T00:04:28.415Z,1.55
2022-10-01T00:06:59.121Z,1.42
2022-10-01T00:09:26.548Z,1.67
2022-10-01T00:11:53.481Z,1.55
2022-10-01T00:14:20.660Z,2.03
2022-10-01T00:16:47.622Z,1.67
2022-10-01T00:19:15.036Z,1.38
2022-10-01T00:26:38.998Z,1.45
2022-10-01T00:29:08.333Z,1.48
2022-10-01T00:31:35.571Z,1.30
2022-10-01T00:36:31.962Z,1.70
2022-10-01T00:39:02.769Z,1.30
2022-10-01T00:41:32.613Z,1.60
2022-10-01T00:44:02.441Z,1.33
2022-10-01T00:46:44.776Z,1.92
2022-10-01T00:49:16.229Z,1.50
2022-10-01T00:51:48.139Z,1.30
2022-10-01T00:54:26.441Z,1.85
2022-10-01T00:56:55.694Z,1.45
2022-10-01T00:59:22.979Z,1.42
2022-10-01T01:01:49.926Z,1.20
2022-10-01T01:04:17.090Z,1.38
2022-10-01T01:06:57.703Z,1.25
2022-10-01T01:09:31.120Z,1.30
2022-10-01T01:12:01.433Z,1.52
2022-10-01T01:14:42.365Z,1.30
2022-10-01T01:17:19.565Z,1.20
2022-10-01T01:22:24.967Z,1.60
2022-10-01T01:24:58.928Z,1.40
2022-10-01T01:28:02.174Z,1.70
2022-10-01T01:30:33.038Z,1.67
2022-10-01T01:33:11.832Z,1.60
2022-10-01T01:35:52.580Z,1.60
2022-10-01T01:38:24.430Z,1.80
2022-10-01T01:40:52.437Z,1.67
2022-10-01T01:43:29.373Z,1.65
2022-10-01T01:45:59.574Z,1.45
2022-10-01T01:48:28.295Z,1.85
2022-10-01T01:51:10.310Z,1.73
2022-10-01T01:53:37.474Z,1.77
2022-10-01T01:56:05.925Z,1.50
2022-10-01T01:58:34.975Z,1.45
2022-10-01T02:01:02.674Z,2.22
2022-10-01T02:03:32.648Z,2.08
2022-10-01T02:06:31.792Z,1.73
2022-10-01T02:09:21.431Z,1.88
2022-10-01T02:12:19.693Z,1.65
2022-10-01T02:15:04.547Z,2.22
2022-10-01T02:17:58.960Z,1.63
2022-10-01T02:20:39.312Z,2.13
2022-10-01T02:23:13.711Z,1.65
2022-10-01T02:25:48.394Z,1.50
2022-10-01T02:28:19.108Z,2.08
2022-10-01T02:30:47.713Z,1.90
2022-10-01T02:33:17.801Z,1.88
2022-10-01T02:35:48.181Z,1.90
2022-10-01T02:38:17.157Z,2.00
2022-10-01T02:40:46.570Z,1.77
2022-10-01T02:43:21.053Z,1.35
2022-10-01T02:45:52.086Z,1.85
2022-10-01T02:48:19.677Z,1.92
2022-10-01T02:50:53.406Z,1.58
2022-10-01T02:53:25.404Z,1.70
2022-10-01T02:55:53.841Z,1.85
2022-10-01T02:58:21.724Z,1.65
2022-10-01T03:00:48.685Z,1.98
2022-10-01T03:03:15.593Z,1.50
2022-10-01T03:05:42.543Z,1.95
2022-10-01T03:08:09.518Z,1.42
2022-10-01T03:10:36.497Z,1.45
2022-10-01T03:13:03.609Z,1.40
2022-10-01T03:15:30.512Z,2.15
2022-10-01T03:17:57.425Z,1.52
2022-10-01T03:20:25.019Z,2.50
2022-10-01T03:22:51.927Z,1.42
2022-10-01T03:25:19.252Z,1.42
2022-10-01T03:27:46.636Z,2.05
2022-10-01T03:30:13.757Z,1.80
2022-10-01T03:32:40.908Z,1.50
2022-10-01T03:35:08.163Z,1.33
2022-10-01T03:37:35.015Z,1.75
2022-10-01T03:40:02.101Z,1.80
2022-10-01T03:42:28.995Z,1.42
2022-10-01T03:44:56.096Z,1.60
2022-10-01T03:47:24.272Z,1.65
2022-10-01T03:49:51.164Z,1.58
2022-10-01T03:52:18.097Z,1.30
2022-10-01T03:54:45.003Z,1.20
2022-10-01T03:57:11.860Z,1.10
2022-10-01T03:59:38.740Z,1.20
2022-10-01T04:02:05.841Z,1.50
2022-10-01T04:04:32.961Z,1.00
2022-10-01T04:07:00.149Z,1.30
2022-10-01T04:09:27.088Z,1.70
2022-10-01T04:11:54.360Z,1.40
2022-10-01T04:14:21.874Z,1.30
2022-10-01T04:19:20.163Z,1.40
2022-10-01T04:21:47.662Z,1.38
2022-10-01T04:26:41.398Z,1.30
2022-10-01T04:29:08.389Z,1.20
2022-10-01T04:31:36.070Z,1.05
2022-10-01T04:34:03.413Z,1.15
2022-10-01T04:36:31.035Z,1.20
2022-10-01T04:39:02.058Z,1.25
2022-10-01T04:41:31.150Z,1.17
2022-10-01T04:43:59.795Z,1.20
2022-10-01T04:46:27.569Z,0.90
2022-10-01T04:48:54.494Z,0.75
2022-10-01T04:51:21.429Z,1.20
2022-10-01T04:53:48.395Z,0.88
2022-10-01T04:56:15.314Z,0.90
2022-10-01T04:58:42.236Z,1.08
2022-10-01T05:01:09.370Z,1.05
2022-10-01T05:03:36.293Z,1.00
2022-10-01T05:06:03.688Z,1.05
2022-10-01T05:08:31.192Z,1.23
2022-10-01T05:13:29.857Z,1.00
2022-10-01T05:15:56.825Z,0.80
2022-10-01T05:18:23.976Z,0.70
2022-10-01T05:20:50.857Z,0.80
2022-10-01T05:23:17.768Z,0.80
2022-10-01T05:25:46.111Z,0.82
2022-10-01T05:28:15.114Z,0.77
2022-10-01T05:30:45.676Z,0.98
2022-10-01T05:33:12.569Z,0.80
2022-10-01T05:35:41.040Z,0.90
2022-10-01T05:38:08.030Z,0.80
2022-10-01T05:40:34.952Z,0.77
2022-10-01T05:43:04.245Z,0.80
2022-10-01T05:45:32.359Z,0.75
2022-10-01T05:48:04.937Z,0.80
2022-10-01T05:50:34.731Z,0.70
2022-10-01T05:53:04.258Z,0.70
2022-10-01T05:55:33.255Z,0.70
2022-10-01T05:58:12.194Z,0.60
2022-10-01T06:00:42.701Z,0.70
2022-10-01T06:03:15.194Z,0.50
2022-10-01T06:05:44.592Z,0.80
2022-10-01T06:08:11.489Z,0.70
2022-10-01T06:10:39.234Z,0.82
2022-10-01T06:13:06.593Z,0.50
2022-10-01T06:15:38.682Z,0.85
2022-10-01T06:18:07.518Z,0.65
2022-10-01T06:20:34.923Z,0.55
2022-10-01T06:23:01.906Z,0.63
2022-10-01T06:25:31.728Z,0.60
2022-10-01T06:28:00.039Z,0.50
2022-10-01T06:30:30.374Z,0.60
2022-10-01T06:33:12.613Z,0.63
2022-10-01T06:35:52.170Z,0.60
2022-10-01T06:38:21.377Z,0.63
2022-10-01T06:40:56.726Z,0.50
2022-10-01T06:43:25.673Z,0.55
2022-10-01T06:45:53.373Z,0.50
2022-10-01T06:48:21.273Z,0.50
2022-10-01T06:50:50.118Z,0.60
2022-10-01T06:53:18.440Z,0.60
2022-10-01T06:55:46.199Z,0.65
2022-10-01T06:58:15.677Z,0.55
2022-10-01T07:00:43.725Z,0.70
2022-10-01T07:03:21.749Z,0.60
2022-10-01T07:05:50.090Z,0.60
2022-10-01T07:08:17.968Z,0.50
2022-10-01T07:10:45.606Z,0.50
2022-10-01T07:13:13.744Z,0.50
2022-10-01T07:15:41.052Z,0.52
2022-10-01T07:18:09.593Z,0.70
2022-10-01T07:20:39.875Z,0.50
2022-10-01T07:23:10.162Z,0.52
2022-10-01T07:25:38.924Z,0.70
2022-10-01T07:28:07.909Z,0.80
2022-10-01T07:30:35.155Z,0.50
2022-10-01T07:33:02.055Z,0.60
2022-10-01T07:35:29.581Z,0.70
2022-10-01T07:40:23.432Z,0.80
2022-10-01T07:42:55.248Z,0.70
2022-10-01T07:45:23.336Z,0.98
2022-10-01T07:48:01.546Z,1.10
2022-10-01T07:50:32.636Z,0.70
2022-10-01T07:53:00.301Z,0.80
2022-10-01T07:55:30.525Z,0.80
2022-10-01T07:58:01.424Z,0.70
2022-10-01T08:00:30.119Z,0.70
2022-10-01T08:02:57.093Z,0.85
2022-10-01T08:05:35.849Z,0.80
2022-10-01T08:08:05.420Z,0.80
2022-10-01T08:10:36.455Z,0.82
2022-10-01T08:13:14.938Z,0.80
2022-10-01T08:15:43.679Z,0.82
2022-10-01T08:18:11.372Z,0.70
2022-10-01T08:20:39.582Z,1.08
2022-10-01T08:23:10.369Z,0.80
2022-10-01T08:25:39.653Z,0.90
2022-10-01T08:28:07.723Z,1.00
2022-10-01T08:30:36.437Z,1.30
2022-10-01T08:33:03.972Z,1.10
2022-10-01T08:35:31.339Z,1.08
2022-10-01T08:38:02.748Z,1.10
2022-10-01T08:40:30.408Z,0.82
2022-10-01T08:43:06.234Z,0.82
2022-10-01T08:45:41.482Z,1.15
2022-10-01T08:48:16.743Z,1.08
2022-10-01T08:51:00.068Z,0.93
2022-10-01T08:53:45.289Z,1.10
2022-10-01T08:56:29.189Z,0.90
2022-10-01T08:59:04.263Z,1.15
2022-10-01T09:01:31.702Z,1.08
2022-10-01T09:03:59.296Z,1.35
2022-10-01T09:06:29.063Z,1.25
2022-10-01T09:09:19.904Z,1.02
2022-10-01T09:11:52.713Z,1.10
2022-10-01T09:14:48.624Z,1.48
2022-10-01T09:17:44.318Z,1.13
2022-10-01T09:20:17.640Z,0.93
2022-10-01T09:23:04.011Z,1.13
2022-10-01T09:25:34.326Z,1.30
2022-10-01T09:28:15.498Z,1.40
2022-10-01T09:30:49.810Z,1.30
2022-10-01T09:33:20.233Z,1.60
2022-10-01T09:36:23.880Z,1.33
2022-10-01T09:39:21.068Z,1.60
2022-10-01T09:41:48.459Z,1.50
2022-10-01T09:46:47.797Z,1.33
2022-10-01T09:49:39.472Z,1.50
2022-10-01T09:52:15.121Z,1.30
2022-10-01T09:54:53.593Z,1.42
2022-10-01T09:57:31.537Z,1.23
2022-10-01T10:00:10.106Z,1.17
2022-10-01T10:02:57.504Z,1.20
2022-10-01T10:05:46.587Z,1.35
2022-10-01T10:08:20.090Z,0.90
2022-10-01T10:11:01.745Z,1.13
2022-10-01T10:13:40.124Z,0.80
2022-10-01T10:16:25.934Z,1.15
2022-10-01T10:18:57.579Z,1.08
2022-10-01T10:21:28.643Z,0.90
2022-10-01T10:23:55.606Z,0.98
2022-10-01T10:26:36.290Z,0.98
2022-10-01T10:29:05.969Z,1.20
2022-10-01T10:31:44.788Z,1.25
2022-10-01T10:34:22.733Z,0.80
2022-10-01T10:36:57.311Z,1.48
2022-10-01T10:39:29.350Z,0.90
2022-10-01T10:41:58.569Z,0.80
2022-10-01T10:44:30.172Z,0.60
2022-10-01T10:47:01.709Z,0.82
2022-10-01T10:49:32.149Z,0.65
2022-10-01T10:52:00.946Z,0.73
2022-10-01T10:54:39.951Z,0.75
2022-10-01T10:57:27.690Z,0.65
2022-10-01T11:00:18.050Z,0.70
2022-10-01T11:03:01.244Z,0.65
2022-10-01T11:05:32.045Z,0.70
2022-10-01T11:08:05.162Z,0.50
2022-10-01T11:10:53.343Z,0.68
2022-10-01T11:13:49.621Z,0.75
2022-10-01T11:17:10.802Z,1.05
2022-10-01T11:19:44.643Z,1.10
2022-10-01T11:22:17.373Z,0.80
2022-10-01T11:25:00.352Z,0.85
2022-10-01T11:27:56.163Z,0.75
2022-10-01T11:30:54.257Z,1.07
2022-10-01T11:33:45.150Z,1.00
2022-10-01T11:36:12.245Z,1.00
2022-10-01T11:39:02.713Z,1.08
2022-10-01T11:41:36.787Z,1.50
2022-10-01T11:44:22.140Z,1.40
2022-10-01T11:46:59.307Z,1.20
2022-10-01T11:52:18.378Z,1.50
2022-10-01T11:55:35.167Z,1.70
2022-10-01T11:58:49.035Z,1.55
2022-10-01T12:01:26.617Z,1.20
2022-10-01T12:03:53.646Z,1.58
2022-10-01T12:06:33.622Z,1.63
2022-10-01T12:09:36.222Z,1.50
2022-10-01T12:12:17.109Z,1.33
2022-10-01T12:15:06.956Z,1.30
2022-10-01T12:17:52.578Z,1.48
2022-10-01T12:20:31.889Z,1.20
2022-10-01T12:23:05.689Z,1.25
2022-10-01T12:26:08.583Z,1.10
2022-10-01T12:28:41.169Z,1.30
2022-10-01T12:31:12.480Z,1.45
2022-10-01T12:34:00.420Z,1.30
2022-10-01T12:36:38.047Z,1.70
2022-10-01T12:39:39.981Z,1.10
2022-10-01T12:42:30.086Z,0.90
2022-10-01T12:45:10.246Z,1.00
2022-10-01T12:47:42.997Z,1.45
2022-10-01T12:50:22.579Z,1.83
2022-10-01T12:53:19.453Z,1.20
2022-10-01T12:56:07.938Z,1.20
2022-10-01T12:59:06.295Z,1.40
2022-10-01T13:01:55.381Z,1.67
2022-10-01T13:05:08.430Z,1.60
2022-10-01T13:08:01.370Z,1.77
2022-10-01T13:10:31.543Z,1.45
2022-10-01T13:16:45.334Z,1.33
2022-10-01T13:22:19.371Z,1.08
2022-10-01T13:29:55.334Z,1.40
2022-10-01T13:32:30.363Z,1.48
2022-10-01T13:34:59.329Z,1.42
2022-10-01T13:37:39.194Z,1.55
2022-10-01T13:40:32.140Z,1.00
2022-10-01T13:43:08.841Z,1.10
2022-10-01T13:45:39.847Z,1.13
2022-10-01T13:48:43.868Z,1.23
2022-10-01T13:51:17.717Z,1.27
2022-10-01T13:53:45.005Z,1.02
2022-10-01T13:56:53.170Z,1.00
2022-10-01T13:59:37.282Z,1.20
2022-10-01T14:02:40.298Z,1.17
2022-10-01T14:05:41.073Z,1.10
2022-10-01T14:08:29.730Z,1.00
2022-10-01T14:11:33.093Z,1.27
2022-10-01T14:14:36.183Z,1.20
2022-10-01T14:17:05.543Z,0.95
2022-10-01T14:19:35.935Z,1.40
2022-10-01T14:22:19.606Z,1.13
2022-10-01T14:25:24.928Z,0.90
2022-10-01T14:28:13.777Z,0.95
2022-10-01T14:30:56.570Z,1.23
2022-10-01T14:33:41.707Z,0.90
2022-10-01T14:36:41.580Z,1.02
2022-10-01T14:39:13.935Z,1.20
2022-10-01T14:41:41.081Z,0.98
2022-10-01T14:44:22.715Z,1.45
2022-10-01T14:46:57.069Z,1.00
2022-10-01T14:49:31.775Z,1.08
2022-10-01T14:52:30.075Z,0.90
2022-10-01T14:54:57.606Z,0.75
2022-10-01T14:57:44.726Z,0.98
2022-10-01T15:00:24.137Z,0.90
2022-10-01T15:03:03.617Z,1.00
2022-10-01T15:06:05.993Z,0.98
2022-10-01T15:08:53.060Z,1.15
2022-10-01T15:11:46.521Z,0.77
2022-10-01T15:14:43.257Z,1.33
2022-10-01T15:20:03.035Z,0.57
2022-10-01T15:22:40.898Z,0.77
2022-10-01T15:25:19.185Z,0.73
2022-10-01T15:27:46.887Z,1.25
2022-10-01T15:30:19.394Z,0.82
2022-10-01T15:32:52.637Z,0.80
2022-10-01T15:35:22.332Z,0.50
2022-10-01T15:37:54.050Z,0.52
2022-10-01T15:40:36.588Z,1.05
2022-10-01T15:43:09.473Z,0.80
2022-10-01T15:45:36.660Z,1.00
2022-10-01T15:48:03.980Z,1.00
2022-10-01T15:53:10.441Z,0.85
2022-10-01T15:55:53.797Z,0.70
2022-10-01T15:58:50.413Z,0.98
2022-10-01T16:01:25.131Z,1.02
2022-10-01T16:04:02.671Z,0.98
2022-10-01T16:06:48.807Z,0.93
2022-10-01T16:09:23.886Z,1.40
2022-10-01T16:12:22.184Z,0.80
2022-10-01T16:15:07.005Z,1.02
2022-10-01T16:17:37.372Z,1.20
2022-10-01T16:20:18.067Z,0.70
2022-10-01T16:22:45.146Z,1.30
2022-10-01T16:25:19.555Z,1.60
2022-10-01T16:28:03.670Z,1.00
2022-10-01T16:30:32.277Z,0.90
2022-10-01T16:33:02.460Z,1.67
2022-10-01T16:35:37.361Z,0.95
2022-10-01T16:38:09.560Z,0.98
2022-10-01T16:40:42.809Z,0.90
2022-10-01T16:43:25.208Z,1.65
2022-10-01T16:45:52.268Z,0.75
2022-10-01T16:48:22.381Z,1.20
2022-10-01T16:50:49.495Z,0.75
2022-10-01T16:53:18.311Z,0.95
2022-10-01T16:55:54.274Z,1.42
2022-10-01T16:58:29.750Z,0.90
2022-10-01T17:00:56.786Z,1.27
2022-10-01T17:03:24.428Z,1.63
2022-10-01T17:05:51.587Z,1.35
2022-10-01T17:08:18.628Z,1.15
2022-10-01T17:10:51.229Z,1.13
2022-10-01T17:13:18.224Z,1.30
2022-10-01T17:15:48.396Z,1.10
2022-10-01T17:18:15.453Z,1.38
2022-10-01T17:20:42.488Z,1.20
2022-10-01T17:23:11.578Z,1.40
2022-10-01T17:25:39.734Z,1.45
2022-10-01T17:28:13.746Z,0.98
2022-10-01T17:30:46.508Z,1.48
2022-10-01T17:33:14.825Z,1.20
2022-10-01T17:35:44.499Z,1.42
2022-10-01T17:38:12.558Z,1.08
2022-10-01T17:40:41.526Z,1.33
2022-10-01T17:43:13.614Z,1.33
2022-10-01T17:45:40.975Z,1.27
2022-10-01T17:50:38.125Z,1.33
2022-10-01T17:53:05.101Z,1.27
2022-10-01T17:55:33.758Z,1.23
2022-10-01T17:58:01.034Z,1.45
2022-10-01T18:00:28.042Z,1.20
2022-10-01T18:02:55.758Z,1.38
2022-10-01T18:05:22.743Z,1.50
2022-10-01T18:07:49.839Z,1.38
2022-10-01T18:10:16.847Z,1.10
2022-10-01T18:12:43.767Z,1.35
2022-10-01T18:15:11.214Z,1.27
2022-10-01T18:17:42.976Z,1.60
2022-10-01T18:20:10.538Z,1.40
2022-10-01T18:22:38.040Z,1.77
2022-10-01T18:25:06.942Z,1.27
2022-10-01T18:27:33.959Z,1.20
2022-10-01T18:30:00.951Z,2.13
2022-10-01T18:32:36.411Z,1.52
2022-10-01T18:35:05.674Z,1.98
2022-10-01T18:37:37.549Z,1.50
2022-10-01T18:40:16.835Z,1.33
2022-10-01T18:43:01.527Z,1.88
2022-10-01T18:45:56.074Z,1.63
2022-10-01T18:48:29.830Z,1.48
2022-10-01T18:51:36.233Z,1.40
2022-10-01T18:54:20.616Z,1.35
2022-10-01T18:57:04.711Z,2.05
2022-10-01T19:00:08.590Z,1.00
2022-10-01T19:03:23.838Z,1.58
2022-10-01T19:06:18.867Z,1.55
2022-10-01T19:09:01.187Z,1.35
2022-10-01T19:12:07.285Z,1.83
2022-10-01T19:14:38.815Z,1.55
2022-10-01T19:17:25.576Z,1.85
2022-10-01T19:20:16.995Z,1.20
2022-10-01T19:23:00.636Z,1.13
2022-10-01T19:25:51.858Z,1.42
2022-10-01T19:28:28.734Z,1.83
2022-10-01T19:31:42.107Z,1.80
2022-10-01T19:34:30.715Z,1.83
2022-10-01T19:37:15.814Z,1.27
2022-10-01T19:39:46.124Z,2.00
2022-10-01T19:42:23.402Z,1.23
2022-10-01T19:48:02.645Z,1.05
2022-10-01T19:50:34.210Z,1.50
2022-10-01T19:53:04.917Z,1.55
2022-10-01T19:55:38.803Z,1.63
2022-10-01T19:58:18.750Z,1.63
2022-10-01T20:00:50.940Z,1.85
2022-10-01T20:03:42.418Z,2.00
2022-10-01T20:06:42.028Z,1.60
2022-10-01T20:09:28.822Z,1.58
2022-10-01T20:12:02.862Z,1.70
2022-10-01T20:15:09.416Z,1.23
2022-10-01T20:17:49.283Z,1.63
2022-10-01T20:20:23.390Z,1.65
2022-10-01T20:23:08.368Z,1.70
2022-10-01T20:25:41.330Z,2.00
2022-10-01T20:28:36.527Z,1.92
2022-10-01T20:31:19.907Z,1.67
2022-10-01T20:33:59.649Z,1.83
2022-10-01T20:36:42.244Z,1.73
2022-10-01T20:39:15.442Z,1.80
2022-10-01T20:41:48.337Z,1.25
2022-10-01T20:44:21.860Z,1.52
2022-10-01T20:46:53.557Z,1.27
2022-10-01T20:49:50.502Z,1.60
2022-10-01T20:52:50.405Z,1.42
2022-10-01T20:55:27.953Z,1.98
2022-10-01T20:58:05.021Z,1.58
2022-10-01T21:00:32.520Z,1.80
2022-10-01T21:03:09.353Z,2.13
2022-10-01T21:05:42.638Z,0.95
2022-10-01T21:08:39.300Z,1.50
2022-10-01T21:11:41.638Z,1.40
2022-10-01T21:14:14.361Z,1.83
2022-10-01T21:16:56.394Z,1.70
2022-10-01T21:19:51.569Z,1.17
2022-10-01T21:22:37.756Z,1.70
2022-10-01T21:25:32.663Z,1.50
2022-10-01T21:28:00.022Z,2.30
2022-10-01T21:33:23.402Z,1.77
2022-10-01T21:36:14.953Z,1.92
2022-10-01T21:38:54.952Z,1.75
2022-10-01T21:41:34.412Z,1.67
2022-10-01T21:44:07.758Z,1.75
2022-10-01T21:47:08.690Z,1.60
2022-10-01T21:49:58.761Z,2.45
2022-10-01T21:52:43.751Z,2.28
2022-10-01T21:55:41.949Z,1.65
2022-10-01T21:58:56.798Z,1.95
2022-10-01T22:01:42.631Z,1.55
2022-10-01T22:04:23.665Z,2.20
2022-10-01T22:07:01.837Z,1.30
2022-10-01T22:09:39.339Z,1.75
2022-10-01T22:12:07.729Z,1.98
2022-10-01T22:14:34.675Z,2.03
2022-10-01T22:17:14.701Z,1.65
2022-10-01T22:19:52.953Z,1.48
2022-10-01T22:22:31.395Z,1.55
2022-10-01T22:25:00.668Z,1.63
2022-10-01T22:27:33.381Z,1.73
2022-10-01T22:30:16.074Z,1.60
2022-10-01T22:32:56.496Z,2.00
2022-10-01T22:35:39.607Z,1.88
2022-10-01T22:38:25.352Z,1.48
2022-10-01T22:41:04.226Z,1.60
2022-10-01T22:43:32.049Z,2.10
2022-10-01T22:46:07.829Z,1.27
2022-10-01T22:48:53.856Z,1.42
2022-10-01T22:51:50.059Z,1.58
2022-10-01T22:54:35.169Z,1.50
2022-10-01T22:57:20.184Z,1.95
2022-10-01T23:00:07.778Z,1.45
2022-10-01T23:02:54.133Z,1.67
2022-10-01T23:05:59.491Z,1.73
2022-10-01T23:08:38.776Z,1.40
2022-10-01T23:11:28.125Z,1.63
2022-10-01T23:14:30.132Z,1.65
2022-10-01T23:17:41.749Z,1.88
2022-10-01T23:20:08.758Z,1.45
2022-10-01T23:22:56.725Z,1.92
2022-10-01T23:25:32.766Z,1.85
2022-10-01T23:28:41.485Z,1.23
2022-10-01T23:31:30.559Z,2.20
2022-10-01T23:34:34.379Z,1.88
2022-10-01T23:37:43.354Z,1.45
2022-10-01T23:40:14.770Z,1.77
2022-10-01T23:43:11.532Z,1.92
2022-10-01T23:45:54.957Z,1.02
2022-10-01T23:48:27.843Z,1.92
2022-10-01T23:51:02.458Z,2.25
2022-10-01T23:53:47.168Z,1.90
2022-10-01T23:56:50.711Z,2.53
2022-10-01T23:59:32.657Z,2.10
